createdAt,value
2023-06-19T00:00:25.849Z,69
2023-06-19T00:02:56.947Z,69
2023-06-19T00:05:27.252Z,69
2023-06-19T00:07:58.511Z,69
2023-06-19T00:10:29.632Z,68
2023-06-19T00:13:00.231Z,69
2023-06-19T00:15:31.041Z,69
2023-06-19T00:18:01.605Z,69
2023-06-19T00:20:32.286Z,69
2023-06-19T00:23:02.888Z,69
2023-06-19T00:25:32.962Z,69
2023-06-19T00:28:03.254Z,69
2023-06-19T00:30:33.725Z,69
2023-06-19T00:33:04.478Z,69
2023-06-19T00:35:34.854Z,69
2023-06-19T00:38:05.897Z,69
2023-06-19T00:40:36.668Z,69
2023-06-19T00:43:07.878Z,69
2023-06-19T00:45:38.257Z,69
2023-06-19T00:48:09.134Z,69
2023-06-19T00:50:40.552Z,69
2023-06-19T00:53:10.048Z,69
2023-06-19T00:55:40.784Z,69
2023-06-19T00:58:12.819Z,69
2023-06-19T01:00:52.866Z,69
2023-06-19T01:03:18.746Z,70
2023-06-19T01:05:47.559Z,69
2023-06-19T01:08:18.344Z,70
2023-06-19T01:10:50.067Z,69
2023-06-19T01:13:21.321Z,69
2023-06-19T01:15:53.047Z,69
2023-06-19T01:18:23.929Z,69
2023-06-19T01:20:55.489Z,70
2023-06-19T01:23:26.043Z,69
2023-06-19T01:25:56.954Z,69
2023-06-19T01:28:27.502Z,69
2023-06-19T01:30:58.366Z,70
2023-06-19T01:33:29.308Z,70
2023-06-19T01:36:00.205Z,70
2023-06-19T01:38:31.376Z,70
2023-06-19T01:41:02.093Z,69
2023-06-19T01:43:32.808Z,69
2023-06-19T01:46:04.248Z,69
2023-06-19T01:48:36.074Z,70
2023-06-19T01:51:06.594Z,69
2023-06-19T01:53:37.330Z,70
2023-06-19T01:56:08.029Z,70
2023-06-19T01:58:41.498Z,70
2023-06-19T02:01:12.115Z,69
2023-06-19T02:03:45.313Z,70
2023-06-19T02:06:15.944Z,69
2023-06-19T02:08:46.919Z,69
2023-06-19T02:11:17.622Z,70
2023-06-19T02:13:49.150Z,70
2023-06-19T02:16:19.840Z,70
2023-06-19T02:18:50.327Z,69
2023-06-19T02:21:21.240Z,69
2023-06-19T02:23:52.275Z,69
2023-06-19T02:26:23.176Z,70
2023-06-19T02:28:53.950Z,70
2023-06-19T02:31:24.663Z,70
2023-06-19T02:33:54.784Z,70
2023-06-19T02:36:25.828Z,70
2023-06-19T02:38:56.582Z,70
2023-06-19T02:41:27.380Z,70
2023-06-19T02:43:58.381Z,70
2023-06-19T02:46:29.098Z,69
2023-06-19T02:48:59.674Z,70
2023-06-19T02:51:30.314Z,70
2023-06-19T02:54:01.336Z,70
2023-06-19T02:56:32.456Z,70
2023-06-19T02:59:03.803Z,70
2023-06-19T03:01:34.460Z,70
2023-06-19T03:04:06.064Z,70
2023-06-19T03:06:37.332Z,70
2023-06-19T03:09:07.946Z,70
2023-06-19T03:11:38.950Z,70
2023-06-19T03:14:11.222Z,70
2023-06-19T03:16:42.122Z,70
2023-06-19T03:19:13.466Z,70
2023-06-19T03:21:44.317Z,70
2023-06-19T03:24:15.314Z,70
2023-06-19T03:26:45.950Z,70
2023-06-19T03:29:16.418Z,70
2023-06-19T03:31:47.899Z,70
2023-06-19T03:34:20.034Z,70
2023-06-19T03:36:52.559Z,70
2023-06-19T03:39:23.271Z,69
2023-06-19T03:41:54.302Z,69
2023-06-19T03:44:24.832Z,70
2023-06-19T03:46:56.160Z,69
2023-06-19T03:49:27.007Z,69
2023-06-19T03:51:57.476Z,69
2023-06-19T03:54:28.686Z,69
2023-06-19T03:57:01.122Z,69
2023-06-19T03:59:32.830Z,69
2023-06-19T04:02:03.433Z,69
2023-06-19T04:04:33.884Z,69
2023-06-19T04:07:04.299Z,69
2023-06-19T04:09:33.500Z,69
2023-06-19T04:12:06.047Z,69
2023-06-19T04:14:37.005Z,69
2023-06-19T04:17:07.641Z,69
2023-06-19T04:19:38.366Z,69
2023-06-19T04:22:09.035Z,69
2023-06-19T04:24:40.201Z,68
2023-06-19T04:27:10.844Z,68
2023-06-19T04:29:42.461Z,69
2023-06-19T04:32:13.481Z,68
2023-06-19T04:34:44.352Z,68
2023-06-19T04:37:15.227Z,68
2023-06-19T04:39:46.236Z,68
2023-06-19T04:42:17.215Z,67
2023-06-19T04:44:46.535Z,67
2023-06-19T04:47:18.608Z,68
2023-06-19T04:49:49.660Z,68
2023-06-19T04:52:21.674Z,68
2023-06-19T04:54:52.262Z,67
2023-06-19T04:57:23.046Z,68
2023-06-19T04:59:54.124Z,67
2023-06-19T05:02:24.704Z,66
2023-06-19T05:04:55.373Z,66
2023-06-19T05:07:27.331Z,66
2023-06-19T05:09:58.896Z,66
2023-06-19T05:12:29.556Z,66
2023-06-19T05:15:00.449Z,66
2023-06-19T05:17:31.269Z,66
2023-06-19T05:20:02.737Z,66
2023-06-19T05:22:33.370Z,65
2023-06-19T05:25:03.990Z,65
2023-06-19T05:27:34.502Z,65
2023-06-19T05:30:05.190Z,64
2023-06-19T05:32:37.767Z,64
2023-06-19T05:35:08.724Z,63
2023-06-19T05:37:39.402Z,63
2023-06-19T05:40:10.336Z,63
2023-06-19T05:42:40.810Z,62
2023-06-19T05:45:11.314Z,62
2023-06-19T05:47:42.410Z,62
2023-06-19T05:50:14.555Z,61
2023-06-19T05:52:45.531Z,62
2023-06-19T05:55:16.793Z,62
2023-06-19T05:57:49.468Z,61
2023-06-19T06:00:20.316Z,61
2023-06-19T06:02:51.487Z,61
2023-06-19T06:05:21.861Z,61
2023-06-19T06:07:53.374Z,61
2023-06-19T06:10:24.689Z,61
2023-06-19T06:12:55.542Z,61
2023-06-19T06:15:26.120Z,60
2023-06-19T06:17:56.901Z,60
2023-06-19T06:20:27.501Z,60
2023-06-19T06:22:58.847Z,61
2023-06-19T06:25:30.007Z,60
2023-06-19T06:28:00.217Z,60
2023-06-19T06:30:30.803Z,59
2023-06-19T06:33:01.499Z,59
2023-06-19T06:35:32.658Z,58
2023-06-19T06:38:04.062Z,58
2023-06-19T06:40:34.841Z,58
2023-06-19T06:43:05.653Z,57
2023-06-19T06:45:36.615Z,56
2023-06-19T06:48:07.193Z,56
2023-06-19T06:50:38.353Z,56
2023-06-19T06:53:11.075Z,56
2023-06-19T06:55:41.850Z,56
2023-06-19T06:58:12.406Z,53
2023-06-19T07:00:43.325Z,56
2023-06-19T07:03:14.046Z,55
2023-06-19T07:05:44.487Z,53
2023-06-19T07:08:15.381Z,54
2023-06-19T07:10:45.991Z,55
2023-06-19T07:13:16.583Z,54
2023-06-19T07:15:47.815Z,53
2023-06-19T07:18:18.387Z,53
2023-06-19T07:20:48.725Z,53
2023-06-19T07:23:19.468Z,52
2023-06-19T07:25:50.394Z,52
2023-06-19T07:28:22.341Z,51
2023-06-19T07:30:56.151Z,49
2023-06-19T07:33:26.793Z,48
2023-06-19T07:36:01.474Z,49
2023-06-19T07:38:34.676Z,50
2023-06-19T07:41:06.568Z,49
2023-06-19T07:43:37.384Z,49
2023-06-19T07:46:08.311Z,49
2023-06-19T07:48:40.204Z,48
2023-06-19T07:51:10.975Z,48
2023-06-19T07:53:42.869Z,49
2023-06-19T07:56:13.773Z,48
2023-06-19T07:58:45.754Z,48
2023-06-19T08:01:16.743Z,46
2023-06-19T08:03:47.663Z,46
2023-06-19T08:06:18.273Z,46
2023-06-19T08:08:49.214Z,49
2023-06-19T08:11:20.893Z,50
2023-06-19T08:13:51.474Z,48
2023-06-19T08:16:25.074Z,47
2023-06-19T08:18:56.096Z,48
2023-06-19T08:21:26.667Z,47
2023-06-19T08:23:58.222Z,47
2023-06-19T08:26:28.864Z,47
2023-06-19T08:28:59.214Z,46
2023-06-19T08:31:29.912Z,46
2023-06-19T08:34:00.678Z,47
2023-06-19T08:36:31.555Z,46
2023-06-19T08:39:02.330Z,46
2023-06-19T08:41:34.881Z,47
2023-06-19T08:44:05.590Z,46
2023-06-19T08:46:36.210Z,44
2023-06-19T08:49:06.997Z,44
2023-06-19T08:51:38.046Z,46
2023-06-19T08:54:08.795Z,45
2023-06-19T08:56:39.286Z,44
2023-06-19T08:59:09.918Z,46
2023-06-19T09:01:40.209Z,46
2023-06-19T09:04:11.727Z,46
2023-06-19T09:06:42.955Z,45
2023-06-19T09:09:14.736Z,46
2023-06-19T09:11:45.718Z,46
2023-06-19T09:14:16.568Z,43
2023-06-19T09:16:47.403Z,42
2023-06-19T09:19:18.247Z,44
2023-06-19T09:21:49.102Z,44
2023-06-19T09:24:19.717Z,44
2023-06-19T09:26:50.374Z,43
2023-06-19T09:31:52.678Z,42
2023-06-19T09:34:23.278Z,42
2023-06-19T09:36:54.243Z,44
2023-06-19T09:39:24.798Z,45
2023-06-19T09:41:55.495Z,44
2023-06-19T09:44:26.078Z,44
2023-06-19T09:46:56.673Z,43
2023-06-19T09:49:27.645Z,43
2023-06-19T09:51:58.194Z,44
2023-06-19T09:54:28.831Z,44
2023-06-19T09:56:59.738Z,44
2023-06-19T09:59:31.139Z,40
2023-06-19T10:02:01.764Z,40
2023-06-19T10:04:32.266Z,43
2023-06-19T10:07:03.400Z,41
2023-06-19T10:09:34.228Z,43
2023-06-19T10:12:05.098Z,41
2023-06-19T10:14:35.598Z,41
2023-06-19T10:17:06.888Z,41
2023-06-19T10:19:37.878Z,44
2023-06-19T10:22:08.563Z,42
2023-06-19T10:24:39.307Z,42
2023-06-19T10:27:10.050Z,43
2023-06-19T10:29:40.835Z,39
2023-06-19T10:32:11.274Z,40
2023-06-19T10:34:42.454Z,42
2023-06-19T10:37:13.153Z,42
2023-06-19T10:39:43.714Z,41
2023-06-19T10:42:14.469Z,42
2023-06-19T10:44:44.900Z,41
2023-06-19T10:47:15.665Z,38
2023-06-19T10:49:46.223Z,40
2023-06-19T10:52:17.176Z,40
2023-06-19T10:54:48.519Z,37
2023-06-19T10:57:19.853Z,39
2023-06-19T10:59:50.721Z,39
2023-06-19T11:02:23.426Z,40
2023-06-19T11:04:53.958Z,41
2023-06-19T11:07:24.268Z,39
2023-06-19T11:09:54.670Z,37
2023-06-19T11:12:25.094Z,38
2023-06-19T11:14:55.611Z,39
2023-06-19T11:17:26.324Z,40
2023-06-19T11:19:57.880Z,39
2023-06-19T11:22:28.595Z,40
2023-06-19T11:25:04.221Z,38
2023-06-19T11:27:34.993Z,41
2023-06-19T11:30:06.970Z,41
2023-06-19T11:32:38.795Z,41
2023-06-19T11:35:09.458Z,41
2023-06-19T11:37:40.095Z,38
2023-06-19T11:40:16.216Z,39
2023-06-19T11:42:46.550Z,38
2023-06-19T11:45:17.101Z,37
2023-06-19T11:47:47.868Z,37
2023-06-19T11:50:18.571Z,39
2023-06-19T11:52:49.261Z,37
2023-06-19T11:55:19.949Z,38
2023-06-19T11:57:50.800Z,39
2023-06-19T12:00:22.664Z,39
2023-06-19T12:02:53.201Z,39
2023-06-19T12:05:23.570Z,38
2023-06-19T12:07:54.217Z,39
2023-06-19T12:10:25.603Z,38
2023-06-19T12:12:57.618Z,40
2023-06-19T12:15:29.801Z,38
2023-06-19T12:18:00.551Z,40
2023-06-19T12:20:31.077Z,40
2023-06-19T12:23:01.737Z,41
2023-06-19T12:25:33.488Z,41
2023-06-19T12:28:03.899Z,39
2023-06-19T12:30:35.000Z,37
2023-06-19T12:33:05.510Z,40
2023-06-19T12:35:36.010Z,38
2023-06-19T12:38:07.663Z,39
2023-06-19T12:40:38.117Z,40
2023-06-19T12:43:08.622Z,37
2023-06-19T12:45:39.400Z,39
2023-06-19T12:48:10.738Z,37
2023-06-19T12:50:41.403Z,39
2023-06-19T12:53:11.920Z,38
2023-06-19T12:55:59.867Z,36
2023-06-19T12:58:15.874Z,39
2023-06-19T13:00:46.099Z,40
2023-06-19T13:03:17.202Z,40
2023-06-19T13:05:47.606Z,40
2023-06-19T13:08:18.707Z,39
2023-06-19T13:10:49.323Z,41
2023-06-19T13:13:20.269Z,39
2023-06-19T13:15:51.099Z,37
2023-06-19T13:18:21.967Z,36
2023-06-19T13:20:52.380Z,36
2023-06-19T13:23:23.008Z,38
2023-06-19T13:25:53.821Z,38
2023-06-19T13:28:26.211Z,38
2023-06-19T13:30:56.699Z,37
2023-06-19T13:33:31.081Z,36
2023-06-19T13:36:01.457Z,36
2023-06-19T13:38:32.196Z,36
2023-06-19T13:41:02.899Z,37
2023-06-19T13:43:33.419Z,38
2023-06-19T13:46:04.238Z,37
2023-06-19T13:48:34.856Z,38
2023-06-19T13:51:05.613Z,36
2023-06-19T13:53:36.785Z,38
2023-06-19T13:56:07.396Z,37
2023-06-19T13:58:38.382Z,38
2023-06-19T14:01:09.048Z,37
2023-06-19T14:03:39.432Z,37
2023-06-19T14:06:10.175Z,37
2023-06-19T14:08:41.113Z,38
2023-06-19T14:11:11.780Z,37
2023-06-19T14:13:42.229Z,37
2023-06-19T14:16:12.772Z,38
2023-06-19T14:18:43.502Z,38
2023-06-19T14:21:14.094Z,37
2023-06-19T14:23:44.698Z,36
2023-06-19T14:26:15.264Z,36
2023-06-19T14:28:46.800Z,39
2023-06-19T14:31:17.245Z,38
2023-06-19T14:33:47.849Z,38
2023-06-19T14:36:21.127Z,37
2023-06-19T14:38:52.204Z,39
2023-06-19T14:41:25.261Z,37
2023-06-19T14:43:55.637Z,38
2023-06-19T14:46:38.061Z,39
2023-06-19T14:48:56.401Z,39
2023-06-19T14:51:27.409Z,39
2023-06-19T14:53:58.252Z,39
2023-06-19T14:56:28.761Z,40
2023-06-19T14:58:59.213Z,39
2023-06-19T15:01:31.789Z,37
2023-06-19T15:04:02.568Z,38
2023-06-19T15:06:32.945Z,40
2023-06-19T15:09:05.429Z,39
2023-06-19T15:11:34.093Z,39
2023-06-19T15:14:04.403Z,39
2023-06-19T15:16:37.622Z,40
2023-06-19T15:19:05.970Z,39
2023-06-19T15:21:36.431Z,39
2023-06-19T15:24:07.147Z,39
2023-06-19T15:26:40.256Z,38
2023-06-19T15:29:10.777Z,38
2023-06-19T15:31:41.539Z,37
2023-06-19T15:34:12.415Z,37
2023-06-19T15:36:43.493Z,38
2023-06-19T15:39:14.445Z,38
2023-06-19T15:41:46.194Z,39
2023-06-19T15:44:17.214Z,39
2023-06-19T15:46:48.906Z,40
2023-06-19T15:49:20.130Z,40
2023-06-19T15:51:52.547Z,41
2023-06-19T15:54:23.187Z,40
2023-06-19T15:56:55.400Z,40
2023-06-19T15:59:25.878Z,40
2023-06-19T16:01:57.536Z,40
2023-06-19T16:04:28.046Z,41
2023-06-19T16:06:59.010Z,42
2023-06-19T16:09:39.881Z,41
2023-06-19T16:12:03.220Z,41
2023-06-19T16:14:34.120Z,40
2023-06-19T16:17:04.648Z,41
2023-06-19T16:19:36.700Z,41
2023-06-19T16:22:05.793Z,39
2023-06-19T16:24:36.441Z,39
2023-06-19T16:27:07.259Z,41
2023-06-19T16:29:37.786Z,41
2023-06-19T16:32:10.506Z,40
2023-06-19T16:34:41.175Z,40
2023-06-19T16:37:11.960Z,41
2023-06-19T16:39:42.424Z,41
2023-06-19T16:42:13.031Z,41
2023-06-19T16:44:43.527Z,42
2023-06-19T16:47:14.223Z,42
2023-06-19T16:49:44.807Z,41
2023-06-19T16:52:17.338Z,41
2023-06-19T16:54:49.753Z,41
2023-06-19T16:57:21.133Z,41
2023-06-19T16:59:51.738Z,42
2023-06-19T17:02:22.430Z,43
2023-06-19T17:04:54.361Z,43
2023-06-19T17:07:24.732Z,43
2023-06-19T17:09:56.829Z,44
2023-06-19T17:12:27.964Z,43
2023-06-19T17:14:58.357Z,45
2023-06-19T17:17:29.934Z,44
2023-06-19T17:20:00.834Z,45
2023-06-19T17:22:31.381Z,45
2023-06-19T17:25:00.729Z,46
2023-06-19T17:27:31.825Z,47
2023-06-19T17:30:02.529Z,47
2023-06-19T17:32:33.488Z,47
2023-06-19T17:35:04.746Z,47
2023-06-19T17:37:35.303Z,47
2023-06-19T17:40:06.229Z,48
2023-06-19T17:42:37.068Z,48
2023-06-19T17:45:07.662Z,49
2023-06-19T17:47:36.765Z,49
2023-06-19T17:50:07.239Z,49
2023-06-19T17:52:37.804Z,48
2023-06-19T17:55:08.655Z,48
2023-06-19T17:57:39.226Z,48
2023-06-19T18:00:10.268Z,49
2023-06-19T18:02:41.043Z,50
2023-06-19T18:05:11.858Z,49
2023-06-19T18:07:42.572Z,50
2023-06-19T18:10:14.982Z,49
2023-06-19T18:12:45.369Z,50
2023-06-19T18:15:16.442Z,50
2023-06-19T18:17:47.151Z,50
2023-06-19T18:20:17.594Z,51
2023-06-19T18:22:47.984Z,51
2023-06-19T18:25:18.386Z,51
2023-06-19T18:27:50.462Z,52
2023-06-19T18:30:21.651Z,52
2023-06-19T18:32:52.405Z,53
2023-06-19T18:35:23.430Z,53
2023-06-19T18:37:54.175Z,54
2023-06-19T18:40:25.683Z,56
2023-06-19T18:42:56.142Z,55
2023-06-19T18:45:26.580Z,56
2023-06-19T18:47:56.964Z,56
2023-06-19T18:50:27.909Z,58
2023-06-19T18:53:00.594Z,57
2023-06-19T18:55:30.732Z,57
2023-06-19T18:58:01.749Z,58
2023-06-19T19:00:33.361Z,58
2023-06-19T19:03:03.924Z,59
2023-06-19T19:05:34.671Z,59
2023-06-19T19:08:04.903Z,59
2023-06-19T19:10:36.016Z,59
2023-06-19T19:13:06.449Z,60
2023-06-19T19:15:38.843Z,60
2023-06-19T19:18:10.359Z,60
2023-06-19T19:20:40.835Z,60
2023-06-19T19:23:12.035Z,60
2023-06-19T19:25:42.998Z,60
2023-06-19T19:28:14.940Z,60
2023-06-19T19:30:47.340Z,60
2023-06-19T19:33:18.050Z,60
2023-06-19T19:35:48.482Z,61
2023-06-19T19:38:18.883Z,61
2023-06-19T19:40:49.509Z,61
2023-06-19T19:43:20.095Z,61
2023-06-19T19:45:50.853Z,61
2023-06-19T19:48:21.464Z,61
2023-06-19T19:50:52.233Z,62
2023-06-19T19:53:22.747Z,61
2023-06-19T19:55:52.782Z,61
2023-06-19T19:58:22.916Z,61
2023-06-19T20:00:53.279Z,62
2023-06-19T20:03:23.665Z,62
2023-06-19T20:05:54.123Z,62
2023-06-19T20:08:24.495Z,63
2023-06-19T20:10:54.985Z,63
2023-06-19T20:13:25.345Z,63
2023-06-19T20:15:55.745Z,63
2023-06-19T20:18:28.357Z,63
2023-06-19T20:21:00.224Z,63
2023-06-19T20:23:32.898Z,64
2023-06-19T20:26:03.485Z,64
2023-06-19T20:28:34.148Z,64
2023-06-19T20:31:05.182Z,64
2023-06-19T20:33:35.633Z,64
2023-06-19T20:36:10.993Z,65
2023-06-19T20:38:42.398Z,66
2023-06-19T20:41:14.490Z,65
2023-06-19T20:43:43.387Z,65
2023-06-19T20:46:15.601Z,66
2023-06-19T20:48:46.669Z,66
2023-06-19T20:51:18.198Z,66
2023-06-19T20:53:48.292Z,66
2023-06-19T20:56:19.968Z,66
2023-06-19T20:58:50.653Z,66
2023-06-19T21:01:19.823Z,66
2023-06-19T21:03:50.177Z,65
2023-06-19T21:06:20.704Z,65
2023-06-19T21:08:52.494Z,65
2023-06-19T21:11:24.800Z,65
2023-06-19T21:13:55.685Z,65
2023-06-19T21:16:26.200Z,65
2023-06-19T21:18:57.558Z,66
2023-06-19T21:21:28.943Z,65
2023-06-19T21:24:02.217Z,65
2023-06-19T21:26:34.396Z,65
2023-06-19T21:29:05.058Z,64
2023-06-19T21:31:36.531Z,64
2023-06-19T21:34:08.523Z,65
2023-06-19T21:36:39.093Z,65
2023-06-19T21:39:09.729Z,65
2023-06-19T21:41:40.286Z,65
2023-06-19T21:44:11.812Z,64
2023-06-19T21:46:42.997Z,64
2023-06-19T21:49:13.627Z,65
2023-06-19T21:51:44.216Z,64
2023-06-19T21:54:14.431Z,64
2023-06-19T21:56:44.832Z,64
2023-06-19T21:59:15.362Z,64
2023-06-19T22:01:45.945Z,65
2023-06-19T22:04:16.941Z,64
2023-06-19T22:06:47.392Z,65
2023-06-19T22:09:18.064Z,65
2023-06-19T22:11:50.268Z,65
2023-06-19T22:14:22.043Z,65
2023-06-19T22:16:52.477Z,66
2023-06-19T22:19:23.301Z,65
2023-06-19T22:21:54.242Z,66
2023-06-19T22:24:25.526Z,66
2023-06-19T22:26:56.003Z,66
2023-06-19T22:29:26.894Z,66
2023-06-19T22:31:57.640Z,66
2023-06-19T22:34:28.927Z,66
2023-06-19T22:37:01.506Z,66
2023-06-19T22:39:32.036Z,66
2023-06-19T22:42:02.987Z,66
2023-06-19T22:44:33.863Z,66
2023-06-19T22:47:04.181Z,66
2023-06-19T22:49:34.530Z,66
2023-06-19T22:52:05.101Z,67
2023-06-19T22:54:37.464Z,66
2023-06-19T22:57:12.458Z,65
2023-06-19T22:59:43.614Z,66
2023-06-19T23:02:15.261Z,66
2023-06-19T23:04:45.672Z,65
2023-06-19T23:07:16.277Z,66
2023-06-19T23:09:47.125Z,65
2023-06-19T23:12:18.264Z,65
2023-06-19T23:14:49.090Z,65
2023-06-19T23:17:19.688Z,66
2023-06-19T23:19:50.939Z,65
2023-06-19T23:22:21.958Z,66
2023-06-19T23:24:52.833Z,67
2023-06-19T23:27:23.441Z,67
2023-06-19T23:29:55.327Z,67
2023-06-19T23:32:25.998Z,67
2023-06-19T23:34:58.030Z,67
2023-06-19T23:37:28.749Z,67
2023-06-19T23:39:59.101Z,67
2023-06-19T23:42:30.047Z,67
2023-06-19T23:45:01.482Z,68
2023-06-19T23:47:31.844Z,67
2023-06-19T23:50:02.406Z,68
2023-06-19T23:52:42.587Z,67
2023-06-19T23:55:03.721Z,68
2023-06-19T23:57:34.329Z,68
